Time;durP1;ratioP1;P1;durP2;ratioP2;P2;SDS_P1;SDS_P2;PMS_P1;PMS_P2;Temp;Humidity;BMP_temperature;BMP_pressure;BME280_temperature;BME280_humidity;BME280_pressure;Samples;Min_cycle;Max_cycle;Signal;HPM_P1;HPM_P2
2022/07/08 00:00:35;;;;;;;4.13;1.00;;;24.90;96.70;;;;;;4865352;29;20048;-79
2022/07/08 00:03:05;;;;;;;1.95;0.80;;;24.80;96.70;;;;;;4864013;29;20049;-77
2022/07/08 00:05:33;;;;;;;2.58;1.10;;;24.80;96.70;;;;;;4864100;29;20052;-77
2022/07/08 00:08:01;;;;;;;3.08;1.27;;;24.70;96.70;;;;;;4866341;29;20048;-78
2022/07/08 00:10:29;;;;;;;1.65;1.35;;;24.60;96.70;;;;;;4850843;29;20988;-78
2022/07/08 00:12:57;;;;;;;3.15;1.35;;;24.50;96.70;;;;;;4865782;29;20504;-77
2022/07/08 00:15:26;;;;;;;4.70;1.20;;;24.50;96.70;;;;;;4848600;29;20237;-77
2022/07/08 00:17:54;;;;;;;2.10;1.00;;;24.50;96.70;;;;;;4847965;29;20053;-78
2022/07/08 00:20:23;;;;;;;1.50;1.10;;;24.50;96.70;;;;;;4866569;29;20080;-78
2022/07/08 00:22:51;;;;;;;2.08;1.10;;;24.30;96.70;;;;;;4866900;29;20078;-77
2022/07/08 00:25:19;;;;;;;2.25;0.90;;;24.40;96.70;;;;;;4877321;29;20544;-78
2022/07/08 00:27:47;;;;;;;2.60;1.00;;;24.30;96.70;;;;;;4865776;29;20091;-78
2022/07/08 00:30:15;;;;;;;2.15;1.20;;;24.40;96.70;;;;;;4867027;29;20049;-77
2022/07/08 00:32:43;;;;;;;2.45;0.90;;;24.40;96.70;;;;;;4863770;29;20132;-77
2022/07/08 00:35:11;;;;;;;2.88;0.90;;;24.40;96.70;;;;;;4848782;29;20053;-77
2022/07/08 00:37:41;;;;;;;3.60;1.00;;;24.40;96.70;;;;;;4864484;29;20100;-78
2022/07/08 00:40:11;;;;;;;2.40;0.80;;;24.40;96.70;;;;;;4862132;29;20213;-77
2022/07/08 00:42:40;;;;;;;1.85;1.05;;;24.40;96.70;;;;;;4864803;29;20579;-78
2022/07/08 00:45:09;;;;;;;2.95;1.00;;;24.30;96.70;;;;;;4865672;29;20776;-77
2022/07/08 00:47:37;;;;;;;2.45;1.00;;;24.30;96.70;;;;;;4862838;29;20049;-78
2022/07/08 00:50:06;;;;;;;2.83;1.45;;;24.30;96.70;;;;;;4852660;29;20049;-77
2022/07/08 00:52:35;;;;;;;2.33;0.68;;;24.30;96.70;;;;;;4865469;29;20072;-77
2022/07/08 00:55:07;;;;;;;3.00;1.00;;;24.20;96.70;;;;;;4865825;29;20170;-78
2022/07/08 00:57:38;;;;;;;3.72;1.55;;;24.10;96.70;;;;;;4863432;29;20127;-77
2022/07/08 01:00:07;;;;;;;2.60;1.10;;;24.20;96.70;;;;;;4867413;29;20175;-77
2022/07/08 01:02:39;;;;;;;4.03;0.90;;;24.20;96.70;;;;;;4864251;29;20049;-77
2022/07/08 01:05:08;;;;;;;3.90;0.90;;;24.10;96.70;;;;;;4868885;29;20088;-77
2022/07/08 01:07:36;;;;;;;2.45;1.30;;;24.00;96.70;;;;;;4863774;29;20045;-78
2022/07/08 01:10:07;;;;;;;2.05;1.08;;;24.10;96.70;;;;;;4864737;29;20041;-78
2022/07/08 01:12:35;;;;;;;2.00;0.77;;;24.20;96.70;;;;;;4861668;29;20052;-77
2022/07/08 01:15:03;;;;;;;2.22;0.80;;;24.20;96.70;;;;;;4848591;29;20044;-77
2022/07/08 01:17:44;;;;;;;1.55;1.02;;;24.10;96.70;;;;;;4879376;29;20421;-77
2022/07/08 01:20:13;;;;;;;3.95;1.13;;;24.20;96.70;;;;;;4878607;29;20057;-77
2022/07/08 01:22:43;;;;;;;2.17;0.98;;;24.10;96.70;;;;;;4863957;29;20091;-77
2022/07/08 01:25:12;;;;;;;1.75;0.93;;;23.90;96.70;;;;;;4857908;29;20123;-77
2022/07/08 01:27:40;;;;;;;6.13;1.25;;;24.00;96.70;;;;;;4866354;29;20076;-78
2022/07/08 01:30:09;;;;;;;2.67;1.00;;;24.00;96.70;;;;;;4865016;29;20060;-77
2022/07/08 01:32:42;;;;;;;2.33;0.90;;;24.10;96.70;;;;;;4846754;29;20627;-76
2022/07/08 01:35:10;;;;;;;1.55;0.82;;;24.10;96.70;;;;;;4860196;29;20052;-77
2022/07/08 01:37:38;;;;;;;1.73;1.38;;;24.10;96.70;;;;;;4864524;29;20060;-76
2022/07/08 01:40:09;;;;;;;2.20;1.15;;;24.10;96.70;;;;;;4864041;29;20499;-77
2022/07/08 01:42:38;;;;;;;1.90;0.90;;;23.90;96.70;;;;;;4863945;29;20053;-75
2022/07/08 01:45:07;;;;;;;1.77;1.10;;;23.60;96.70;;;;;;4848799;29;20045;-76
2022/07/08 01:47:35;;;;;;;3.47;0.90;;;23.60;96.70;;;;;;4853762;29;20053;-76
2022/07/08 01:50:04;;;;;;;3.25;1.10;;;23.70;96.70;;;;;;4862264;29;20065;-76
2022/07/08 01:52:32;;;;;;;2.10;1.13;;;23.80;96.70;;;;;;4864338;29;20612;-77
2022/07/08 01:55:00;;;;;;;4.32;1.20;;;23.70;96.70;;;;;;4864644;29;20048;-77
2022/07/08 01:57:31;;;;;;;4.63;1.10;;;23.80;96.70;;;;;;4847266;29;20132;-75
2022/07/08 01:59:59;;;;;;;2.88;1.10;;;23.70;96.70;;;;;;4862372;29;20156;-77
2022/07/08 02:02:27;;;;;;;4.07;1.00;;;23.80;96.70;;;;;;4862056;29;21258;-77
2022/07/08 02:04:55;;;;;;;4.25;1.00;;;23.70;96.70;;;;;;4864859;29;20501;-78
2022/07/08 02:07:23;;;;;;;4.20;1.27;;;23.60;96.70;;;;;;4864588;29;20052;-76
2022/07/08 02:09:52;;;;;;;4.10;1.33;;;23.90;96.70;;;;;;4863049;29;20049;-77
2022/07/08 02:12:20;;;;;;;1.90;0.98;;;23.80;96.70;;;;;;4864826;29;20563;-77
2022/07/08 02:14:51;;;;;;;1.70;1.10;;;23.50;96.70;;;;;;4861743;29;20049;-81
2022/07/08 02:17:21;;;;;;;3.58;1.70;;;23.60;96.70;;;;;;4866839;29;20048;-82
2022/07/08 02:19:50;;;;;;;3.47;1.30;;;23.50;96.70;;;;;;4881175;29;20524;-82
2022/07/08 02:22:18;;;;;;;3.47;1.40;;;23.20;96.70;;;;;;4866307;29;20039;-81
2022/07/08 02:24:49;;;;;;;2.28;1.10;;;23.10;96.70;;;;;;4868559;29;20123;-82
2022/07/08 02:27:18;;;;;;;2.00;1.15;;;23.40;96.70;;;;;;4868385;29;20151;-82
2022/07/08 02:29:46;;;;;;;3.10;1.38;;;23.40;96.70;;;;;;4868013;29;20045;-81
2022/07/08 02:32:16;;;;;;;2.20;1.10;;;23.30;96.70;;;;;;4866971;29;20049;-81
2022/07/08 02:34:44;;;;;;;6.13;1.42;;;23.40;96.70;;;;;;4867069;29;20052;-81
2022/07/08 02:37:15;;;;;;;2.30;0.95;;;23.40;96.70;;;;;;4867291;29;20047;-81
2022/07/08 02:39:43;;;;;;;1.95;1.10;;;23.40;96.70;;;;;;4867520;29;20056;-81
2022/07/08 02:42:12;;;;;;;2.97;1.00;;;23.50;96.70;;;;;;4866737;29;20042;-82
2022/07/08 02:44:40;;;;;;;1.05;0.93;;;23.50;96.70;;;;;;4850128;29;20081;-81
2022/07/08 02:47:08;;;;;;;2.53;0.90;;;23.40;96.70;;;;;;4880637;29;20060;-81
2022/07/08 02:49:39;;;;;;;3.72;0.98;;;23.30;96.70;;;;;;4866528;29;20053;-81
2022/07/08 02:52:07;;;;;;;4.75;1.10;;;23.40;96.70;;;;;;4866614;29;20053;-81
2022/07/08 02:54:35;;;;;;;2.50;1.23;;;23.30;96.70;;;;;;4867692;29;20053;-82
2022/07/08 02:57:04;;;;;;;3.80;1.40;;;23.30;96.70;;;;;;4866889;29;20536;-81
2022/07/08 02:59:33;;;;;;;3.13;1.10;;;23.10;96.70;;;;;;4868196;29;20146;-81
2022/07/08 03:02:01;;;;;;;4.28;1.00;;;23.30;96.70;;;;;;4868130;29;20145;-80
2022/07/08 03:04:29;;;;;;;4.05;1.25;;;23.40;96.70;;;;;;4864382;29;20132;-82
2022/07/08 03:06:59;;;;;;;2.75;1.00;;;23.50;96.70;;;;;;4868653;29;20108;-82
2022/07/08 03:09:27;;;;;;;5.18;1.25;;;23.50;96.70;;;;;;4865112;29;20420;-81
2022/07/08 03:11:55;;;;;;;3.95;1.00;;;23.40;96.70;;;;;;4868376;29;20124;-81
2022/07/08 03:14:23;;;;;;;3.75;1.38;;;23.30;96.70;;;;;;4867205;29;20048;-81
2022/07/08 03:16:51;;;;;;;2.47;0.98;;;23.10;96.70;;;;;;4866981;29;20148;-81
2022/07/08 03:19:19;;;;;;;2.25;1.00;;;23.10;96.70;;;;;;4864979;29;20053;-82
2022/07/08 03:21:47;;;;;;;2.75;0.95;;;23.00;96.70;;;;;;4870237;29;20055;-82
2022/07/08 03:24:17;;;;;;;5.00;0.90;;;23.20;96.70;;;;;;4873080;29;20045;-82
2022/07/08 03:26:45;;;;;;;5.28;1.23;;;23.30;96.70;;;;;;4862148;29;20053;-80
2022/07/08 03:29:13;;;;;;;3.63;1.20;;;23.10;96.70;;;;;;4854761;29;20054;-82
2022/07/08 03:31:41;;;;;;;3.20;1.27;;;23.00;96.70;;;;;;4862733;29;20057;-80
2022/07/08 03:34:09;;;;;;;3.55;1.30;;;23.20;96.70;;;;;;4871052;29;20053;-81
2022/07/08 03:36:38;;;;;;;2.42;1.23;;;23.30;96.70;;;;;;4873996;29;20049;-82
2022/07/08 03:39:05;;;;;;;2.20;0.93;;;23.20;96.70;;;;;;4870075;29;20580;-81
2022/07/08 03:41:35;;;;;;;5.20;0.98;;;23.20;96.70;;;;;;4866634;29;20049;-80
2022/07/08 03:44:03;;;;;;;3.63;1.00;;;23.00;96.70;;;;;;4870835;29;20052;-81
2022/07/08 03:46:31;;;;;;;2.17;1.05;;;23.10;96.70;;;;;;4885410;29;20048;-81
2022/07/08 03:48:59;;;;;;;3.35;1.40;;;22.90;96.70;;;;;;4871010;29;20044;-81
2022/07/08 03:51:27;;;;;;;5.55;1.30;;;22.80;96.70;;;;;;4869328;29;20690;-81
2022/07/08 03:53:55;;;;;;;5.65;1.42;;;22.80;96.70;;;;;;4871660;29;20648;-81
2022/07/08 03:56:23;;;;;;;2.45;1.15;;;22.70;96.70;;;;;;4884591;29;20059;-81
2022/07/08 03:58:53;;;;;;;1.80;0.93;;;22.70;96.70;;;;;;4874861;29;20045;-80
2022/07/08 04:01:21;;;;;;;3.60;1.40;;;22.80;96.70;;;;;;4869527;29;20049;-81
2022/07/08 04:03:49;;;;;;;3.63;1.52;;;22.70;96.70;;;;;;4879276;29;20093;-80
2022/07/08 04:06:17;;;;;;;3.60;1.10;;;22.70;96.70;;;;;;4868425;29;20045;-81
2022/07/08 04:08:45;;;;;;;5.03;1.25;;;22.60;96.70;;;;;;4858884;29;20655;-81
2022/07/08 04:11:13;;;;;;;2.72;1.08;;;22.70;96.70;;;;;;4866866;29;20140;-81
2022/07/08 04:13:41;;;;;;;2.17;1.13;;;22.70;96.70;;;;;;4864569;29;20520;-77
2022/07/08 04:16:13;;;;;;;3.58;1.48;;;22.60;96.70;;;;;;4868412;29;20080;-77
2022/07/08 04:18:42;;;;;;;3.25;1.63;;;22.60;96.70;;;;;;4871170;29;20144;-77
2022/07/08 04:21:10;;;;;;;3.78;1.25;;;22.60;96.70;;;;;;4875960;29;20057;-77
2022/07/08 04:23:38;;;;;;;3.05;1.10;;;22.70;96.70;;;;;;4872033;29;20053;-78
2022/07/08 04:26:06;;;;;;;2.45;1.35;;;22.60;96.70;;;;;;4850532;29;20101;-78
2022/07/08 04:28:35;;;;;;;2.88;1.48;;;22.70;96.70;;;;;;4870132;29;20059;-78
2022/07/08 04:31:03;;;;;;;3.45;1.30;;;22.70;96.70;;;;;;4869873;29;20416;-78
2022/07/08 04:33:32;;;;;;;2.95;1.27;;;22.80;96.70;;;;;;4869530;29;20053;-78
2022/07/08 04:36:00;;;;;;;4.20;1.70;;;22.80;96.70;;;;;;4871157;29;20100;-78
2022/07/08 04:38:28;;;;;;;4.75;1.42;;;22.80;96.70;;;;;;4872966;29;20051;-78
2022/07/08 04:40:57;;;;;;;1.90;1.00;;;22.70;96.70;;;;;;4872124;29;20047;-79
2022/07/08 04:43:25;;;;;;;4.00;1.40;;;22.80;96.70;;;;;;4854310;29;20147;-78
2022/07/08 04:45:54;;;;;;;4.20;1.08;;;22.80;96.70;;;;;;4874208;29;20052;-78
2022/07/08 04:48:23;;;;;;;4.95;1.70;;;22.90;96.70;;;;;;4873218;29;20045;-79
2022/07/08 04:50:53;;;;;;;2.47;1.23;;;22.90;96.70;;;;;;4855750;29;20558;-78
2022/07/08 04:53:21;;;;;;;4.50;1.38;;;22.90;96.70;;;;;;4870017;29;20075;-78
2022/07/08 04:55:50;;;;;;;3.35;2.42;;;23.00;96.70;;;;;;4870710;29;20320;-78
2022/07/08 04:58:18;;;;;;;5.85;3.00;;;23.00;96.70;;;;;;4890310;29;20076;-78
2022/07/08 05:00:47;;;;;;;6.03;3.50;;;22.80;96.70;;;;;;4871913;29;20075;-78
2022/07/08 05:03:15;;;;;;;9.60;5.53;;;22.70;96.70;;;;;;4886539;29;20049;-78
2022/07/08 05:05:52;;;;;;;10.30;5.53;;;22.60;96.70;;;;;;4872477;29;20580;-78
2022/07/08 05:08:21;;;;;;;9.18;5.32;;;22.70;96.70;;;;;;4870453;29;20579;-78
2022/07/08 05:10:49;;;;;;;8.85;5.70;;;22.70;96.70;;;;;;4866748;29;20045;-78
2022/07/08 05:13:18;;;;;;;9.32;5.28;;;22.80;96.70;;;;;;4860953;29;20429;-78
2022/07/08 05:15:46;;;;;;;10.40;5.32;;;23.00;96.70;;;;;;4855603;29;20051;-78
2022/07/08 05:18:14;;;;;;;9.85;5.47;;;23.10;96.70;;;;;;4871952;29;20057;-78
2022/07/08 05:20:43;;;;;;;8.15;4.80;;;23.30;96.70;;;;;;4870886;29;20057;-78
2022/07/08 05:23:15;;;;;;;8.73;5.13;;;23.40;96.70;;;;;;4881752;29;20054;-78
2022/07/08 05:25:43;;;;;;;9.30;4.90;;;23.40;96.70;;;;;;4869479;29;20140;-77
2022/07/08 05:28:12;;;;;;;12.55;5.20;;;23.40;96.70;;;;;;4873093;29;20047;-78
2022/07/08 05:30:40;;;;;;;9.52;5.28;;;23.40;96.70;;;;;;4884882;29;20053;-78
2022/07/08 05:33:09;;;;;;;14.65;8.10;;;23.40;96.70;;;;;;4885735;29;20073;-77
2022/07/08 05:35:37;;;;;;;13.63;7.30;;;23.40;96.70;;;;;;4869982;29;20068;-79
2022/07/08 05:38:05;;;;;;;16.50;9.80;;;23.50;96.70;;;;;;4871407;29;20041;-78
2022/07/08 05:40:35;;;;;;;17.33;9.07;;;23.60;96.70;;;;;;4854838;29;20059;-79
2022/07/08 05:43:04;;;;;;;17.75;11.20;;;23.70;96.70;;;;;;4869670;29;20059;-78
2022/07/08 05:45:32;;;;;;;13.52;8.45;;;23.70;96.70;;;;;;4872408;29;20121;-79
2022/07/08 05:48:00;;;;;;;13.98;7.55;;;23.80;96.70;;;;;;4850649;29;20057;-78
2022/07/08 05:50:29;;;;;;;12.80;7.35;;;23.90;96.70;;;;;;4868703;29;20500;-78
2022/07/08 05:52:57;;;;;;;12.07;6.32;;;23.90;96.70;;;;;;4868128;29;20148;-78
2022/07/08 05:55:26;;;;;;;9.93;5.55;;;23.70;96.70;;;;;;4862377;29;20049;-79
2022/07/08 05:57:56;;;;;;;8.75;4.35;;;23.70;96.70;;;;;;4865300;29;20156;-78
2022/07/08 06:00:24;;;;;;;8.48;3.42;;;23.80;96.70;;;;;;4867553;29;20049;-78
2022/07/08 06:02:52;;;;;;;7.32;3.15;;;23.80;96.70;;;;;;4871017;29;20631;-78
2022/07/08 06:05:21;;;;;;;10.05;3.45;;;23.80;96.70;;;;;;4868760;29;20057;-78
2022/07/08 06:07:49;;;;;;;7.95;2.60;;;23.70;96.70;;;;;;4869446;29;20516;-78
2022/07/08 06:10:18;;;;;;;5.18;2.50;;;23.70;96.70;;;;;;4868675;29;20053;-79
2022/07/08 06:12:46;;;;;;;5.68;2.90;;;23.70;96.70;;;;;;4869711;29;20563;-78
2022/07/08 06:15:16;;;;;;;5.82;2.45;;;23.50;96.70;;;;;;4868946;29;20048;-79
2022/07/08 06:17:45;;;;;;;7.07;2.58;;;23.50;96.70;;;;;;4870364;29;20048;-78
2022/07/08 06:20:14;;;;;;;6.38;2.50;;;23.60;96.70;;;;;;4854158;29;20177;-78
2022/07/08 06:22:52;;;;;;;5.10;2.60;;;23.80;96.70;;;;;;4870991;29;20052;-78
2022/07/08 06:25:21;;;;;;;8.77;2.28;;;24.00;96.70;;;;;;4872909;29;20469;-82
2022/07/08 06:27:49;;;;;;;7.55;2.45;;;24.20;96.70;;;;;;4872126;29;20148;-81
2022/07/08 06:30:19;;;;;;;7.97;2.35;;;24.40;96.70;;;;;;4871594;29;20053;-82
2022/07/08 06:32:47;;;;;;;2.55;1.17;;;24.60;96.70;;;;;;4872112;29;20048;-82
2022/07/08 06:35:16;;;;;;;3.28;1.25;;;24.60;96.70;;;;;;4871220;29;20053;-78
2022/07/08 06:37:45;;;;;;;4.00;1.33;;;24.80;96.70;;;;;;4868347;29;20060;-80
2022/07/08 06:40:13;;;;;;;5.45;1.00;;;24.90;96.70;;;;;;4870719;29;20037;-77
2022/07/08 06:42:42;;;;;;;3.05;0.80;;;25.10;96.70;;;;;;4868370;29;20504;-78
2022/07/08 06:45:12;;;;;;;3.65;0.60;;;25.20;96.70;;;;;;4858522;29;20690;-82
2022/07/08 06:47:42;;;;;;;3.92;0.60;;;25.30;96.70;;;;;;4870689;29;20045;-82
2022/07/08 06:50:10;;;;;;;4.32;0.60;;;25.30;96.70;;;;;;4872410;29;20044;-82
2022/07/08 06:52:39;;;;;;;4.53;0.77;;;25.40;96.70;;;;;;4874969;29;20044;-81
2022/07/08 06:55:08;;;;;;;1.55;0.60;;;25.40;96.70;;;;;;4852694;29;20060;-80
2022/07/08 06:57:36;;;;;;;3.58;0.60;;;25.50;96.70;;;;;;4869578;29;20049;-80
2022/07/08 07:00:06;;;;;;;3.13;0.70;;;25.60;96.70;;;;;;4871575;29;20049;-80
2022/07/08 07:02:51;;;;;;;1.98;0.60;;;25.70;96.70;;;;;;4869060;29;20053;-80
2022/07/08 07:05:20;;;;;;;3.17;0.77;;;25.80;96.70;;;;;;4857731;29;20056;-81
2022/07/08 07:07:49;;;;;;;1.95;0.50;;;25.80;96.70;;;;;;4860577;29;20591;-81
2022/07/08 07:10:17;;;;;;;1.90;0.40;;;25.90;96.70;;;;;;4873855;29;20748;-82
2022/07/08 07:12:45;;;;;;;4.70;0.70;;;26.00;96.70;;;;;;4891040;29;20044;-83
2022/07/08 07:15:14;;;;;;;2.60;0.60;;;26.10;96.70;;;;;;4876281;29;20067;-84
2022/07/08 07:17:43;;;;;;;2.90;0.40;;;26.20;96.70;;;;;;4884770;29;20057;-86
2022/07/08 07:20:13;;;;;;;2.70;0.63;;;26.20;96.70;;;;;;4867040;29;20057;-85
2022/07/08 07:22:41;;;;;;;1.73;0.60;;;26.20;96.70;;;;;;4876186;29;20052;-86
2022/07/08 07:25:10;;;;;;;2.30;0.55;;;26.30;96.70;;;;;;4875814;29;20045;-85
2022/07/08 07:27:41;;;;;;;2.17;0.65;;;26.30;96.70;;;;;;4890693;29;20064;-86
2022/07/08 07:30:10;;;;;;;1.75;0.40;;;26.40;96.70;;;;;;4875796;29;20571;-85
2022/07/08 07:32:39;;;;;;;2.30;0.50;;;26.50;96.70;;;;;;4875431;29;20121;-85
2022/07/08 07:35:07;;;;;;;1.70;0.30;;;26.60;96.70;;;;;;4877290;29;20112;-82
2022/07/08 07:37:38;;;;;;;1.35;0.30;;;26.70;96.70;;;;;;4888311;29;20108;-80
2022/07/08 07:40:07;;;;;;;4.63;0.57;;;26.70;96.70;;;;;;4872181;29;20409;-79
2022/07/08 07:42:36;;;;;;;2.28;0.40;;;26.80;96.70;;;;;;4872511;29;20037;-78
2022/07/08 07:45:06;;;;;;;2.30;0.50;;;26.80;96.70;;;;;;4872194;29;20133;-79
2022/07/08 07:47:34;;;;;;;2.75;0.40;;;26.80;96.70;;;;;;4877068;29;20053;-79
2022/07/08 07:50:03;;;;;;;4.07;0.50;;;26.80;96.70;;;;;;4871906;29;20053;-79
2022/07/08 07:52:32;;;;;;;2.40;0.38;;;27.00;96.70;;;;;;4873034;29;20049;-78
2022/07/08 07:55:01;;;;;;;0.85;0.38;;;27.10;96.70;;;;;;4872165;29;20045;-77
2022/07/08 07:57:35;;;;;;;3.38;0.40;;;27.10;96.70;;;;;;4871436;29;20505;-79
2022/07/08 08:00:05;;;;;;;4.35;0.30;;;27.10;96.70;;;;;;4872635;29;20072;-80
2022/07/08 08:02:38;;;;;;;0.68;0.20;;;27.10;96.70;;;;;;4874020;29;20071;-80
2022/07/08 08:05:07;;;;;;;3.47;0.40;;;27.20;96.70;;;;;;4871587;29;20073;-80
2022/07/08 08:07:37;;;;;;;1.70;0.20;;;27.10;96.70;;;;;;4856774;29;20136;-78
2022/07/08 08:10:08;;;;;;;0.70;0.20;;;27.20;96.70;;;;;;4890121;29;20194;-80
2022/07/08 08:12:36;;;;;;;1.17;0.40;;;27.30;96.70;;;;;;4856571;29;20052;-79
2022/07/08 08:15:05;;;;;;;2.00;0.40;;;27.20;96.70;;;;;;4868603;29;20060;-80
2022/07/08 08:17:37;;;;;;;2.13;0.40;;;27.40;96.70;;;;;;4886598;29;20045;-80
2022/07/08 08:20:07;;;;;;;2.78;0.40;;;27.50;96.70;;;;;;4855946;29;20063;-79
2022/07/08 08:22:35;;;;;;;3.38;0.50;;;27.60;96.70;;;;;;4871950;29;20048;-80
2022/07/08 08:25:25;;;;;;;2.95;0.55;;;27.60;96.70;;;;;;4871380;29;20473;-79
2022/07/08 08:27:54;;;;;;;3.97;1.02;;;27.60;96.70;;;;;;4871615;29;20068;-79
2022/07/08 08:30:22;;;;;;;2.95;0.60;;;27.70;96.70;;;;;;4855719;29;20052;-79
2022/07/08 08:32:50;;;;;;;2.38;0.50;;;27.80;96.70;;;;;;4867997;29;20072;-78
2022/07/08 08:35:19;;;;;;;2.40;0.40;;;27.90;96.70;;;;;;4868994;29;20062;-80
2022/07/08 08:37:47;;;;;;;9.32;0.93;;;28.00;96.70;;;;;;4872686;29;20097;-78
2022/07/08 08:40:15;;;;;;;3.58;0.28;;;28.00;96.70;;;;;;4886021;29;20524;-78
2022/07/08 08:42:45;;;;;;;1.77;0.40;;;28.10;96.70;;;;;;4870163;29;20393;-77
2022/07/08 08:45:13;;;;;;;2.42;0.50;;;28.10;96.70;;;;;;4869741;29;20052;-77
2022/07/08 08:47:45;;;;;;;2.30;0.30;;;28.10;96.70;;;;;;4869695;29;20072;-77
2022/07/08 08:53:03;;;;;;;1.65;0.35;;;28.20;96.70;;;;;;4869188;29;20113;-78
2022/07/08 08:55:36;;;;;;;1.20;0.30;;;28.20;96.70;;;;;;4870674;29;20041;-78
2022/07/08 08:58:06;;;;;;;3.33;0.50;;;28.30;96.70;;;;;;4867974;29;20106;-78
2022/07/08 09:00:35;;;;;;;2.88;0.40;;;28.30;96.70;;;;;;4868667;29;20045;-77
2022/07/08 09:03:04;;;;;;;1.88;0.47;;;28.40;96.70;;;;;;4871992;29;20128;-78
2022/07/08 09:05:32;;;;;;;3.28;0.30;;;28.40;96.70;;;;;;4872381;29;20045;-80
2022/07/08 09:08:01;;;;;;;2.00;0.32;;;28.30;96.70;;;;;;4871866;29;20547;-81
2022/07/08 09:10:29;;;;;;;1.23;0.35;;;28.40;96.70;;;;;;4872821;29;20045;-80
2022/07/08 09:13:06;;;;;;;1.50;0.40;;;28.60;96.70;;;;;;4872308;29;20171;-83
2022/07/08 09:15:35;;;;;;;0.93;0.20;;;28.60;96.70;;;;;;4876519;29;20503;-83
2022/07/08 09:18:05;;;;;;;0.75;0.28;;;28.60;96.70;;;;;;4871669;29;20453;-79
2022/07/08 09:20:41;;;;;;;2.40;0.32;;;28.70;96.70;;;;;;4871177;29;20104;-79
2022/07/08 09:23:17;;;;;;;0.77;0.20;;;28.60;96.70;;;;;;4873829;29;20045;-82
2022/07/08 09:25:54;;;;;;;2.58;0.35;;;28.50;96.70;;;;;;4871901;29;20044;-76
2022/07/08 09:28:31;;;;;;;0.98;0.40;;;28.60;96.70;;;;;;4868726;29;20564;-80
2022/07/08 09:31:01;;;;;;;2.42;0.40;;;28.60;96.70;;;;;;4871764;29;20556;-81
2022/07/08 09:33:30;;;;;;;0.88;0.43;;;28.40;96.70;;;;;;4870856;29;20587;-80
2022/07/08 09:36:01;;;;;;;1.73;0.38;;;28.50;96.70;;;;;;4870270;29;20053;-80
2022/07/08 09:38:31;;;;;;;3.03;0.40;;;28.50;96.70;;;;;;4850170;29;20125;-79
2022/07/08 09:41:02;;;;;;;2.92;0.50;;;28.60;96.70;;;;;;4868729;29;20053;-77
2022/07/08 09:43:33;;;;;;;2.10;0.50;;;28.80;96.70;;;;;;4870700;29;20065;-78
2022/07/08 09:46:04;;;;;;;2.13;0.45;;;28.80;96.70;;;;;;4868358;29;20065;-78
2022/07/08 09:48:32;;;;;;;0.75;0.32;;;28.80;96.70;;;;;;4866439;29;20428;-79
2022/07/08 09:51:07;;;;;;;2.33;0.60;;;28.80;96.70;;;;;;4868583;29;20415;-79
2022/07/08 09:53:37;;;;;;;2.67;0.60;;;28.80;96.70;;;;;;4854785;29;20511;-79
2022/07/08 09:56:07;;;;;;;2.05;0.63;;;28.90;96.70;;;;;;4868831;29;20518;-80
2022/07/08 09:58:38;;;;;;;1.83;0.30;;;28.90;96.70;;;;;;4883679;29;20144;-78
2022/07/08 10:01:07;;;;;;;2.20;0.40;;;29.00;96.70;;;;;;4881562;29;20049;-80
2022/07/08 10:03:36;;;;;;;2.13;0.40;;;29.20;96.70;;;;;;4855010;29;20059;-80
2022/07/08 10:06:05;;;;;;;1.23;0.47;;;29.10;96.70;;;;;;4869303;29;20049;-81
2022/07/08 10:08:35;;;;;;;0.47;0.35;;;29.20;96.70;;;;;;4869923;29;20431;-80
2022/07/08 10:11:08;;;;;;;1.80;0.47;;;29.30;96.70;;;;;;4870510;29;20136;-81
2022/07/08 10:13:39;;;;;;;1.85;0.40;;;29.40;96.70;;;;;;4870334;29;20108;-79
2022/07/08 10:16:10;;;;;;;1.25;0.40;;;29.20;96.70;;;;;;4869218;29;20056;-79
2022/07/08 10:18:42;;;;;;;1.70;0.30;;;29.20;96.70;;;;;;4867949;29;20081;-79
2022/07/08 10:21:13;;;;;;;0.60;0.25;;;29.40;96.70;;;;;;4884852;29;20056;-80
2022/07/08 10:23:46;;;;;;;1.38;0.40;;;29.50;96.70;;;;;;4853903;29;20148;-80
2022/07/08 10:26:19;;;;;;;2.67;0.40;;;29.50;96.70;;;;;;4865436;29;20057;-79
2022/07/08 10:29:01;;;;;;;2.00;0.40;;;29.60;96.10;;;;;;4869984;29;20366;-82
2022/07/08 10:31:30;;;;;;;0.38;0.30;;;29.60;94.90;;;;;;4869004;29;20049;-82
2022/07/08 10:34:01;;;;;;;1.55;0.47;;;29.70;95.30;;;;;;4867204;29;20082;-80
2022/07/08 10:36:44;;;;;;;1.40;0.50;;;29.80;96.10;;;;;;4869587;29;20077;-81
2022/07/08 10:39:13;;;;;;;3.28;0.68;;;30.00;96.40;;;;;;4867889;29;20132;-82
2022/07/08 10:41:59;;;;;;;0.60;0.25;;;30.00;93.60;;;;;;4858445;29;20048;-82
2022/07/08 10:44:52;;;;;;;1.80;0.40;;;30.00;92.40;;;;;;4874190;29;20116;-81
2022/07/08 10:47:32;;;;;;;0.80;0.30;;;30.00;92.40;;;;;;4871035;29;20056;-79
2022/07/08 10:50:10;;;;;;;1.40;0.35;;;30.10;92.60;;;;;;4872625;29;20048;-80
2022/07/08 10:52:40;;;;;;;1.30;0.20;;;30.20;93.70;;;;;;4872154;29;20175;-80
2022/07/08 10:55:13;;;;;;;2.63;0.50;;;30.40;93.60;;;;;;4874099;29;20059;-81
2022/07/08 10:57:54;;;;;;;2.28;0.50;;;30.70;93.20;;;;;;4887976;29;20056;-81
2022/07/08 11:00:25;;;;;;;1.58;0.30;;;30.70;91.80;;;;;;4874188;29;20136;-81
2022/07/08 11:02:54;;;;;;;0.93;0.30;;;30.50;92.70;;;;;;4873979;29;20783;-81
2022/07/08 11:05:36;;;;;;;3.70;0.50;;;30.60;91.80;;;;;;4877148;29;20072;-81
2022/07/08 11:08:25;;;;;;;1.45;0.40;;;30.90;91.80;;;;;;4872139;29;20048;-81
2022/07/08 11:10:55;;;;;;;2.30;0.45;;;31.30;90.20;;;;;;4857361;29;20955;-81
2022/07/08 11:13:25;;;;;;;0.57;0.30;;;31.40;90.00;;;;;;4871286;29;20249;-81
2022/07/08 11:15:58;;;;;;;2.35;0.50;;;31.50;89.70;;;;;;4875603;29;20401;-80
2022/07/08 11:18:27;;;;;;;1.23;0.40;;;31.70;88.70;;;;;;4873193;29;20052;-80
2022/07/08 11:21:00;;;;;;;1.25;0.32;;;31.90;87.20;;;;;;4874371;29;20155;-80
2022/07/08 11:23:30;;;;;;;1.83;0.50;;;31.80;87.30;;;;;;4891161;29;20056;-80
2022/07/08 11:26:01;;;;;;;1.00;0.40;;;32.00;86.90;;;;;;4873138;29;20095;-81
2022/07/08 11:28:30;;;;;;;1.65;0.40;;;32.20;86.60;;;;;;4888531;29;20064;-81
2022/07/08 11:31:01;;;;;;;2.35;0.40;;;32.00;87.10;;;;;;4872504;29;20149;-81
2022/07/08 11:33:41;;;;;;;0.30;0.30;;;32.30;86.40;;;;;;4873084;29;20063;-80
2022/07/08 11:36:16;;;;;;;2.00;0.38;;;32.20;85.80;;;;;;4872545;29;20073;-82
2022/07/08 11:38:44;;;;;;;1.45;0.30;;;32.10;85.70;;;;;;4884806;29;20124;-80
2022/07/08 11:41:13;;;;;;;2.05;0.40;;;31.90;85.70;;;;;;4872916;29;20041;-80
2022/07/08 11:43:45;;;;;;;1.95;0.45;;;32.20;86.20;;;;;;4873774;29;20049;-80
2022/07/08 11:46:22;;;;;;;1.35;0.30;;;32.30;85.50;;;;;;4882493;29;20060;-80
2022/07/08 11:48:51;;;;;;;1.10;0.40;;;32.10;84.80;;;;;;4868382;29;20132;-80
2022/07/08 11:51:19;;;;;;;2.42;0.50;;;32.20;86.30;;;;;;4873047;29;20488;-80
2022/07/08 11:53:48;;;;;;;2.88;0.55;;;32.40;85.40;;;;;;4854335;29;20456;-80
2022/07/08 11:56:18;;;;;;;0.80;0.50;;;32.50;85.00;;;;;;4872214;29;20104;-80
2022/07/08 11:58:47;;;;;;;0.93;0.45;;;32.70;85.40;;;;;;4873659;29;20049;-80
2022/07/08 12:01:16;;;;;;;2.67;0.50;;;32.40;85.90;;;;;;4872674;29;20045;-81
2022/07/08 12:03:46;;;;;;;1.70;0.30;;;32.70;85.40;;;;;;4873799;29;20269;-80
2022/07/08 12:06:23;;;;;;;1.98;0.47;;;32.80;84.40;;;;;;4870368;29;20064;-80
2022/07/08 12:08:51;;;;;;;1.65;0.50;;;32.50;84.10;;;;;;4873264;29;20049;-81
2022/07/08 12:11:25;;;;;;;2.78;0.40;;;31.90;84.60;;;;;;4871874;29;20072;-80
2022/07/08 12:13:53;;;;;;;2.90;0.90;;;31.80;84.90;;;;;;4869002;29;20050;-80
2022/07/08 12:16:29;;;;;;;6.43;0.50;;;32.40;83.80;;;;;;4884515;29;20053;-80
2022/07/08 12:18:59;;;;;;;;;;;32.90;82.70;;;;;;4871116;29;20065;-80
2022/07/08 12:21:28;;;;;;;0.50;0.30;;;33.10;82.80;;;;;;4873438;29;20035;-80
2022/07/08 12:23:58;;;;;;;0.88;0.30;;;33.20;82.00;;;;;;4869290;29;20061;-80
2022/07/08 12:26:27;;;;;;;0.30;0.30;;;33.20;81.50;;;;;;4875303;29;20048;-79
2022/07/08 12:28:56;;;;;;;2.30;0.30;;;33.30;82.20;;;;;;4855476;29;20587;-80
2022/07/08 12:31:36;;;;;;;2.42;0.50;;;33.50;82.00;;;;;;4872159;29;20049;-80
2022/07/08 12:34:08;;;;;;;1.20;0.40;;;33.50;82.40;;;;;;4870571;29;20473;-81
2022/07/08 12:36:37;;;;;;;1.48;0.40;;;33.40;81.40;;;;;;4871302;29;20048;-80
2022/07/08 12:39:13;;;;;;;0.68;0.30;;;33.50;81.30;;;;;;4869710;29;20053;-80
2022/07/08 12:41:44;;;;;;;0.75;0.40;;;33.70;82.10;;;;;;4871147;29;20057;-80
2022/07/08 12:44:32;;;;;;;1.52;0.40;;;33.90;80.70;;;;;;4870631;29;20500;-82
2022/07/08 12:47:02;;;;;;;1.48;0.50;;;33.70;80.50;;;;;;4871491;29;20048;-80
2022/07/08 12:49:34;;;;;;;1.05;0.43;;;33.70;80.60;;;;;;4871560;29;20052;-80
2022/07/08 12:52:05;;;;;;;0.50;0.30;;;33.80;81.20;;;;;;4886424;29;20551;-80
2022/07/08 12:54:34;;;;;;;6.32;0.85;;;33.80;80.20;;;;;;4870436;29;20124;-80
2022/07/08 12:57:03;;;;;;;1.52;0.30;;;34.00;79.20;;;;;;4871738;29;20068;-80
2022/07/08 12:59:32;;;;;;;3.13;0.32;;;34.10;79.80;;;;;;4860914;29;20515;-80
2022/07/08 13:02:01;;;;;;;0.52;0.30;;;34.10;80.60;;;;;;4872433;29;20085;-80